sensor_id;sensor_type;location;lat;lon;timestamp;pressure;altitude;pressure_sealevel;temperature;humidity
12215;BME280;6170;42.206;24.142;2022-09-03T00:01:32;98641.34;;;20.85;86.27
12215;BME280;6170;42.206;24.142;2022-09-03T00:04:07;98643.25;;;21.00;85.53
12215;BME280;6170;42.206;24.142;2022-09-03T00:06:39;98636.72;;;20.96;85.46
12215;BME280;6170;42.206;24.142;2022-09-03T00:09:11;98649.81;;;20.79;85.96
12215;BME280;6170;42.206;24.142;2022-09-03T00:11:49;98656.31;;;20.57;87.17
12215;BME280;6170;42.206;24.142;2022-09-03T00:14:20;98661.47;;;20.54;87.37
12215;BME280;6170;42.206;24.142;2022-09-03T00:16:55;98665.03;;;20.59;86.91
12215;BME280;6170;42.206;24.142;2022-09-03T00:19:27;98662.47;;;20.28;88.10
12215;BME280;6170;42.206;24.142;2022-09-03T00:21:59;98671.22;;;20.30;88.79
12215;BME280;6170;42.206;24.142;2022-09-03T00:24:32;98678.06;;;20.42;88.12
12215;BME280;6170;42.206;24.142;2022-09-03T00:27:02;98673.66;;;20.36;87.69
12215;BME280;6170;42.206;24.142;2022-09-03T00:29:35;98677.22;;;20.37;87.73
12215;BME280;6170;42.206;24.142;2022-09-03T00:32:10;98676.97;;;20.43;87.66
12215;BME280;6170;42.206;24.142;2022-09-03T00:34:42;98667.06;;;20.17;88.92
12215;BME280;6170;42.206;24.142;2022-09-03T00:37:10;98670.16;;;20.41;88.14
12215;BME280;6170;42.206;24.142;2022-09-03T00:39:37;98665.25;;;20.38;88.00
12215;BME280;6170;42.206;24.142;2022-09-03T00:42:15;98675.50;;;20.21;88.13
12215;BME280;6170;42.206;24.142;2022-09-03T00:45:00;98662.72;;;20.16;88.40
12215;BME280;6170;42.206;24.142;2022-09-03T00:47:34;98667.19;;;20.52;87.43
12215;BME280;6170;42.206;24.142;2022-09-03T00:50:14;98680.50;;;20.39;87.22
12215;BME280;6170;42.206;24.142;2022-09-03T00:52:53;98670.69;;;20.38;86.91
12215;BME280;6170;42.206;24.142;2022-09-03T00:55:31;98672.34;;;20.54;86.44
12215;BME280;6170;42.206;24.142;2022-09-03T00:58:17;98682.41;;;20.43;86.58
12215;BME280;6170;42.206;24.142;2022-09-03T01:00:48;98678.50;;;20.19;87.82
12215;BME280;6170;42.206;24.142;2022-09-03T01:03:24;98682.94;;;20.35;87.10
12215;BME280;6170;42.206;24.142;2022-09-03T01:06:10;98674.16;;;20.28;87.63
12215;BME280;6170;42.206;24.142;2022-09-03T01:08:59;98675.34;;;20.42;86.49
12215;BME280;6170;42.206;24.142;2022-09-03T01:11:35;98672.59;;;20.37;87.40
12215;BME280;6170;42.206;24.142;2022-09-03T01:14:18;98669.81;;;20.22;87.04
12215;BME280;6170;42.206;24.142;2022-09-03T01:16:52;98673.31;;;20.23;87.52
12215;BME280;6170;42.206;24.142;2022-09-03T01:19:46;98668.38;;;20.04;87.52
12215;BME280;6170;42.206;24.142;2022-09-03T01:22:36;98676.25;;;20.06;88.28
12215;BME280;6170;42.206;24.142;2022-09-03T01:25:17;98676.53;;;20.09;87.90
12215;BME280;6170;42.206;24.142;2022-09-03T01:28:17;98669.31;;;20.30;86.55
12215;BME280;6170;42.206;24.142;2022-09-03T01:30:49;98675.59;;;20.41;86.36
12215;BME280;6170;42.206;24.142;2022-09-03T01:33:27;98675.28;;;20.32;86.00
12215;BME280;6170;42.206;24.142;2022-09-03T01:35:59;98677.50;;;20.35;86.04
12215;BME280;6170;42.206;24.142;2022-09-03T01:38:34;98669.78;;;20.17;86.93
12215;BME280;6170;42.206;24.142;2022-09-03T01:41:11;98670.09;;;20.26;86.26
12215;BME280;6170;42.206;24.142;2022-09-03T01:44:02;98672.22;;;20.13;86.57
12215;BME280;6170;42.206;24.142;2022-09-03T01:46:35;98674.13;;;20.13;86.79
12215;BME280;6170;42.206;24.142;2022-09-03T01:49:10;98666.53;;;20.20;86.41
12215;BME280;6170;42.206;24.142;2022-09-03T01:51:41;98673.88;;;20.25;85.86
12215;BME280;6170;42.206;24.142;2022-09-03T01:54:26;98673.06;;;20.24;85.84
12215;BME280;6170;42.206;24.142;2022-09-03T01:57:23;98668.50;;;20.30;85.41
12215;BME280;6170;42.206;24.142;2022-09-03T01:59:59;98669.78;;;20.12;86.07
12215;BME280;6170;42.206;24.142;2022-09-03T02:02:27;98675.88;;;19.77;87.86
12215;BME280;6170;42.206;24.142;2022-09-03T02:04:58;98675.38;;;19.85;87.04
12215;BME280;6170;42.206;24.142;2022-09-03T02:07:30;98678.03;;;19.75;88.20
12215;BME280;6170;42.206;24.142;2022-09-03T02:10:00;98675.38;;;19.85;87.74
12215;BME280;6170;42.206;24.142;2022-09-03T02:12:29;98678.63;;;19.82;87.56
12215;BME280;6170;42.206;24.142;2022-09-03T02:15:01;98686.00;;;19.87;86.87
12215;BME280;6170;42.206;24.142;2022-09-03T02:17:29;98682.28;;;20.08;85.98
12215;BME280;6170;42.206;24.142;2022-09-03T02:19:57;98691.44;;;19.92;87.02
12215;BME280;6170;42.206;24.142;2022-09-03T02:22:24;98682.03;;;20.19;85.67
12215;BME280;6170;42.206;24.142;2022-09-03T02:24:51;98684.94;;;19.98;86.29
12215;BME280;6170;42.206;24.142;2022-09-03T02:27:18;98688.72;;;19.87;86.47
12215;BME280;6170;42.206;24.142;2022-09-03T02:29:45;98678.94;;;19.91;86.74
12215;BME280;6170;42.206;24.142;2022-09-03T02:32:14;98675.91;;;19.82;86.61
12215;BME280;6170;42.206;24.142;2022-09-03T02:34:41;98674.88;;;19.98;86.33
12215;BME280;6170;42.206;24.142;2022-09-03T02:37:12;98671.38;;;20.03;85.87
12215;BME280;6170;42.206;24.142;2022-09-03T02:39:40;98674.63;;;20.05;86.15
12215;BME280;6170;42.206;24.142;2022-09-03T02:42:08;98672.09;;;19.83;86.68
12215;BME280;6170;42.206;24.142;2022-09-03T02:44:38;98679.47;;;19.93;86.27
12215;BME280;6170;42.206;24.142;2022-09-03T02:47:07;98679.56;;;20.13;85.08
12215;BME280;6170;42.206;24.142;2022-09-03T02:49:35;98688.25;;;20.10;84.96
12215;BME280;6170;42.206;24.142;2022-09-03T02:52:04;98688.53;;;20.18;84.15
12215;BME280;6170;42.206;24.142;2022-09-03T02:54:34;98679.44;;;19.88;85.78
12215;BME280;6170;42.206;24.142;2022-09-03T02:57:04;98688.69;;;19.82;86.21
12215;BME280;6170;42.206;24.142;2022-09-03T02:59:31;98682.63;;;19.74;86.23
12215;BME280;6170;42.206;24.142;2022-09-03T03:01:58;98686.19;;;19.75;86.28
12215;BME280;6170;42.206;24.142;2022-09-03T03:04:25;98693.56;;;19.80;86.67
12215;BME280;6170;42.206;24.142;2022-09-03T03:06:53;98686.78;;;19.82;85.99
12215;BME280;6170;42.206;24.142;2022-09-03T03:09:20;98689.28;;;19.94;85.24
12215;BME280;6170;42.206;24.142;2022-09-03T03:11:47;98694.59;;;19.68;86.07
12215;BME280;6170;42.206;24.142;2022-09-03T03:14:16;98696.00;;;19.81;86.14
12215;BME280;6170;42.206;24.142;2022-09-03T03:16:43;98688.34;;;19.68;86.82
12215;BME280;6170;42.206;24.142;2022-09-03T03:19:09;98695.47;;;19.84;86.13
12215;BME280;6170;42.206;24.142;2022-09-03T03:21:36;98694.44;;;19.90;85.34
12215;BME280;6170;42.206;24.142;2022-09-03T03:24:05;98699.91;;;19.95;85.55
12215;BME280;6170;42.206;24.142;2022-09-03T03:26:32;98703.09;;;19.82;85.63
12215;BME280;6170;42.206;24.142;2022-09-03T03:29:00;98707.41;;;19.73;85.77
12215;BME280;6170;42.206;24.142;2022-09-03T03:31:29;98705.97;;;19.65;86.12
12215;BME280;6170;42.206;24.142;2022-09-03T03:33:58;98708.47;;;19.72;86.11
12215;BME280;6170;42.206;24.142;2022-09-03T03:36:26;98712.06;;;19.88;85.35
12215;BME280;6170;42.206;24.142;2022-09-03T03:38:54;98709.94;;;19.90;84.97
12215;BME280;6170;42.206;24.142;2022-09-03T03:41:26;98715.06;;;19.86;85.19
12215;BME280;6170;42.206;24.142;2022-09-03T03:43:54;98715.66;;;19.93;84.63
12215;BME280;6170;42.206;24.142;2022-09-03T03:46:22;98707.09;;;19.74;85.44
12215;BME280;6170;42.206;24.142;2022-09-03T03:48:49;98716.16;;;19.85;86.14
12215;BME280;6170;42.206;24.142;2022-09-03T03:51:17;98717.22;;;19.84;84.70
12215;BME280;6170;42.206;24.142;2022-09-03T03:53:44;98706.38;;;19.89;85.11
12215;BME280;6170;42.206;24.142;2022-09-03T03:56:13;98711.03;;;19.94;84.68
12215;BME280;6170;42.206;24.142;2022-09-03T03:58:42;98715.84;;;19.77;85.60
12215;BME280;6170;42.206;24.142;2022-09-03T04:01:10;98714.53;;;19.89;85.60
12215;BME280;6170;42.206;24.142;2022-09-03T04:03:37;98714.47;;;19.79;85.73
12215;BME280;6170;42.206;24.142;2022-09-03T04:06:05;98722.59;;;19.74;86.07
12215;BME280;6170;42.206;24.142;2022-09-03T04:08:34;98717.81;;;19.91;85.94
12215;BME280;6170;42.206;24.142;2022-09-03T04:11:05;98715.09;;;19.91;85.51
12215;BME280;6170;42.206;24.142;2022-09-03T04:13:33;98723.59;;;20.00;85.31
12215;BME280;6170;42.206;24.142;2022-09-03T04:16:03;98723.38;;;20.16;84.33
12215;BME280;6170;42.206;24.142;2022-09-03T04:18:31;98723.44;;;20.27;83.90
12215;BME280;6170;42.206;24.142;2022-09-03T04:20:59;98727.47;;;20.24;84.08
12215;BME280;6170;42.206;24.142;2022-09-03T04:23:29;98724.88;;;20.44;83.29
12215;BME280;6170;42.206;24.142;2022-09-03T04:25:55;98711.09;;;20.04;84.32
12215;BME280;6170;42.206;24.142;2022-09-03T04:28:22;98715.25;;;20.27;83.91
12215;BME280;6170;42.206;24.142;2022-09-03T04:30:49;98720.94;;;20.20;84.12
12215;BME280;6170;42.206;24.142;2022-09-03T04:33:17;98723.75;;;20.40;83.05
12215;BME280;6170;42.206;24.142;2022-09-03T04:35:45;98730.47;;;20.23;83.60
12215;BME280;6170;42.206;24.142;2022-09-03T04:38:11;98726.28;;;20.67;82.18
12215;BME280;6170;42.206;24.142;2022-09-03T04:40:38;98728.25;;;20.92;81.18
12215;BME280;6170;42.206;24.142;2022-09-03T04:43:05;98728.25;;;21.12;80.94
12215;BME280;6170;42.206;24.142;2022-09-03T04:45:32;98732.34;;;21.60;78.50
12215;BME280;6170;42.206;24.142;2022-09-03T04:47:59;98734.75;;;21.97;77.34
12215;BME280;6170;42.206;24.142;2022-09-03T04:50:29;98739.34;;;22.17;76.59
12215;BME280;6170;42.206;24.142;2022-09-03T04:52:59;98733.88;;;22.81;74.13
12215;BME280;6170;42.206;24.142;2022-09-03T04:55:26;98736.72;;;23.44;72.54
12215;BME280;6170;42.206;24.142;2022-09-03T04:57:53;98732.78;;;23.84;70.63
12215;BME280;6170;42.206;24.142;2022-09-03T05:00:20;98739.47;;;24.44;68.76
12215;BME280;6170;42.206;24.142;2022-09-03T05:02:47;98745.88;;;24.10;68.36
12215;BME280;6170;42.206;24.142;2022-09-03T05:05:17;98750.69;;;23.95;68.67
12215;BME280;6170;42.206;24.142;2022-09-03T05:07:45;98749.22;;;23.79;69.07
12215;BME280;6170;42.206;24.142;2022-09-03T05:10:13;98754.41;;;23.51;70.38
12215;BME280;6170;42.206;24.142;2022-09-03T05:12:45;98755.06;;;23.72;69.67
12215;BME280;6170;42.206;24.142;2022-09-03T05:15:12;98745.25;;;23.32;70.90
12215;BME280;6170;42.206;24.142;2022-09-03T05:17:39;98748.91;;;23.56;70.33
12215;BME280;6170;42.206;24.142;2022-09-03T05:20:07;98757.00;;;24.24;69.15
12215;BME280;6170;42.206;24.142;2022-09-03T05:22:34;98751.50;;;24.67;68.10
12215;BME280;6170;42.206;24.142;2022-09-03T05:25:02;98752.00;;;24.50;67.44
12215;BME280;6170;42.206;24.142;2022-09-03T05:27:30;98752.59;;;24.66;67.93
12215;BME280;6170;42.206;24.142;2022-09-03T05:29:57;98762.88;;;25.16;66.55
12215;BME280;6170;42.206;24.142;2022-09-03T05:32:24;98764.31;;;24.71;67.08
12215;BME280;6170;42.206;24.142;2022-09-03T05:34:53;98766.22;;;25.13;66.86
12215;BME280;6170;42.206;24.142;2022-09-03T05:37:20;98760.97;;;24.98;66.99
12215;BME280;6170;42.206;24.142;2022-09-03T05:39:47;98775.91;;;25.43;65.98
12215;BME280;6170;42.206;24.142;2022-09-03T05:42:16;98760.34;;;25.57;65.93
12215;BME280;6170;42.206;24.142;2022-09-03T05:44:42;98763.56;;;25.27;65.45
12215;BME280;6170;42.206;24.142;2022-09-03T05:47:09;98762.47;;;25.41;66.09
12215;BME280;6170;42.206;24.142;2022-09-03T05:49:36;98765.75;;;25.76;65.33
12215;BME280;6170;42.206;24.142;2022-09-03T05:52:03;98761.47;;;25.70;64.72
12215;BME280;6170;42.206;24.142;2022-09-03T05:54:30;98757.31;;;25.72;63.66
12215;BME280;6170;42.206;24.142;2022-09-03T05:56:56;98767.84;;;26.11;64.30
12215;BME280;6170;42.206;24.142;2022-09-03T05:59:25;98766.13;;;26.15;63.74
12215;BME280;6170;42.206;24.142;2022-09-03T06:01:51;98773.00;;;25.99;64.68
12215;BME280;6170;42.206;24.142;2022-09-03T06:04:18;98768.50;;;26.49;63.27
12215;BME280;6170;42.206;24.142;2022-09-03T06:06:46;98768.34;;;26.13;63.63
12215;BME280;6170;42.206;24.142;2022-09-03T06:09:15;98777.25;;;26.24;63.28
12215;BME280;6170;42.206;24.142;2022-09-03T06:11:42;98780.53;;;26.07;64.48
12215;BME280;6170;42.206;24.142;2022-09-03T06:14:11;98775.41;;;26.47;63.09
12215;BME280;6170;42.206;24.142;2022-09-03T06:16:41;98781.03;;;26.42;63.17
12215;BME280;6170;42.206;24.142;2022-09-03T06:19:09;98778.56;;;26.40;63.56
12215;BME280;6170;42.206;24.142;2022-09-03T06:21:36;98787.44;;;26.37;63.28
12215;BME280;6170;42.206;24.142;2022-09-03T06:24:04;98782.19;;;26.08;64.17
12215;BME280;6170;42.206;24.142;2022-09-03T06:26:31;98774.81;;;26.36;63.47
12215;BME280;6170;42.206;24.142;2022-09-03T06:28:58;98777.34;;;26.32;63.93
12215;BME280;6170;42.206;24.142;2022-09-03T06:31:25;98782.84;;;26.60;63.15
12215;BME280;6170;42.206;24.142;2022-09-03T06:33:54;98779.34;;;26.13;64.31
12215;BME280;6170;42.206;24.142;2022-09-03T06:36:22;98778.47;;;26.59;63.45
12215;BME280;6170;42.206;24.142;2022-09-03T06:38:51;98774.88;;;26.99;61.99
12215;BME280;6170;42.206;24.142;2022-09-03T06:41:20;98786.91;;;26.49;63.03
12215;BME280;6170;42.206;24.142;2022-09-03T06:43:50;98777.31;;;26.73;63.29
12215;BME280;6170;42.206;24.142;2022-09-03T06:46:19;98782.72;;;27.28;61.52
12215;BME280;6170;42.206;24.142;2022-09-03T06:48:46;98792.81;;;27.19;61.01
12215;BME280;6170;42.206;24.142;2022-09-03T06:51:18;98776.78;;;27.35;61.53
12215;BME280;6170;42.206;24.142;2022-09-03T06:53:48;98782.22;;;27.26;60.09
12215;BME280;6170;42.206;24.142;2022-09-03T06:56:16;98783.97;;;27.66;60.23
12215;BME280;6170;42.206;24.142;2022-09-03T06:58:45;98787.84;;;28.10;58.87
12215;BME280;6170;42.206;24.142;2022-09-03T07:01:14;98785.06;;;27.79;59.12
12215;BME280;6170;42.206;24.142;2022-09-03T07:03:43;98790.31;;;27.67;59.38
12215;BME280;6170;42.206;24.142;2022-09-03T07:06:12;98787.50;;;27.58;59.67
12215;BME280;6170;42.206;24.142;2022-09-03T07:08:40;98787.13;;;27.51;58.99
12215;BME280;6170;42.206;24.142;2022-09-03T07:11:09;98794.19;;;27.08;61.00
12215;BME280;6170;42.206;24.142;2022-09-03T07:13:38;98785.72;;;27.04;60.58
12215;BME280;6170;42.206;24.142;2022-09-03T07:16:07;98795.00;;;27.08;60.98
12215;BME280;6170;42.206;24.142;2022-09-03T07:18:35;98790.00;;;27.68;60.20
12215;BME280;6170;42.206;24.142;2022-09-03T07:21:04;98783.75;;;27.54;60.28
12215;BME280;6170;42.206;24.142;2022-09-03T07:23:31;98780.28;;;27.49;59.33
12215;BME280;6170;42.206;24.142;2022-09-03T07:26:02;98790.66;;;27.96;59.01
12215;BME280;6170;42.206;24.142;2022-09-03T07:28:29;98789.75;;;27.79;58.35
12215;BME280;6170;42.206;24.142;2022-09-03T07:31:01;98791.69;;;27.56;59.96
12215;BME280;6170;42.206;24.142;2022-09-03T07:33:28;98787.09;;;28.27;57.35
12215;BME280;6170;42.206;24.142;2022-09-03T07:35:55;98792.72;;;27.91;59.16
12215;BME280;6170;42.206;24.142;2022-09-03T07:38:27;98796.44;;;27.86;58.86
12215;BME280;6170;42.206;24.142;2022-09-03T07:40:56;98797.66;;;28.73;58.17
12215;BME280;6170;42.206;24.142;2022-09-03T07:43:25;98796.53;;;28.03;59.45
12215;BME280;6170;42.206;24.142;2022-09-03T07:45:53;98794.38;;;28.23;57.67
12215;BME280;6170;42.206;24.142;2022-09-03T07:48:22;98801.16;;;28.17;60.09
12215;BME280;6170;42.206;24.142;2022-09-03T07:50:49;98807.38;;;28.70;60.11
12215;BME280;6170;42.206;24.142;2022-09-03T07:53:16;98796.91;;;28.89;58.85
12215;BME280;6170;42.206;24.142;2022-09-03T07:55:45;98799.41;;;29.34;57.59
12215;BME280;6170;42.206;24.142;2022-09-03T07:58:13;98800.03;;;29.48;56.28
12215;BME280;6170;42.206;24.142;2022-09-03T08:00:41;98789.44;;;28.98;56.79
12215;BME280;6170;42.206;24.142;2022-09-03T08:03:08;98786.72;;;29.33;57.31
12215;BME280;6170;42.206;24.142;2022-09-03T08:05:35;98783.00;;;29.46;57.78
12215;BME280;6170;42.206;24.142;2022-09-03T08:08:02;98783.16;;;29.32;56.52
12215;BME280;6170;42.206;24.142;2022-09-03T08:10:29;98772.25;;;29.27;56.03
12215;BME280;6170;42.206;24.142;2022-09-03T08:12:57;98777.09;;;28.87;56.37
12215;BME280;6170;42.206;24.142;2022-09-03T08:15:24;98781.69;;;29.43;56.46
12215;BME280;6170;42.206;24.142;2022-09-03T08:17:52;98775.34;;;29.34;56.60
12215;BME280;6170;42.206;24.142;2022-09-03T08:20:19;98769.84;;;30.15;56.28
12215;BME280;6170;42.206;24.142;2022-09-03T08:22:46;98765.91;;;29.10;56.42
12215;BME280;6170;42.206;24.142;2022-09-03T08:25:13;98761.88;;;29.33;55.36
12215;BME280;6170;42.206;24.142;2022-09-03T08:27:40;98752.72;;;29.75;55.67
12215;BME280;6170;42.206;24.142;2022-09-03T08:30:07;98746.59;;;29.10;57.77
12215;BME280;6170;42.206;24.142;2022-09-03T08:32:36;98750.19;;;29.36;56.40
12215;BME280;6170;42.206;24.142;2022-09-03T08:35:06;98755.38;;;29.29;57.46
12215;BME280;6170;42.206;24.142;2022-09-03T08:37:34;98751.44;;;28.95;56.35
12215;BME280;6170;42.206;24.142;2022-09-03T08:40:01;98748.03;;;29.67;55.93
12215;BME280;6170;42.206;24.142;2022-09-03T08:42:42;98749.31;;;29.61;54.90
12215;BME280;6170;42.206;24.142;2022-09-03T08:45:15;98748.38;;;29.57;56.23
12215;BME280;6170;42.206;24.142;2022-09-03T08:47:45;98751.28;;;29.26;56.63
12215;BME280;6170;42.206;24.142;2022-09-03T08:50:22;98751.09;;;29.66;56.12
12215;BME280;6170;42.206;24.142;2022-09-03T08:52:53;98745.06;;;29.81;54.67
12215;BME280;6170;42.206;24.142;2022-09-03T08:55:25;98749.13;;;29.83;53.79
12215;BME280;6170;42.206;24.142;2022-09-03T08:57:58;98743.56;;;30.01;53.96
12215;BME280;6170;42.206;24.142;2022-09-03T09:00:41;98749.09;;;30.39;53.68
12215;BME280;6170;42.206;24.142;2022-09-03T09:03:33;98746.94;;;30.15;53.85
12215;BME280;6170;42.206;24.142;2022-09-03T09:06:13;98750.84;;;30.05;53.88
12215;BME280;6170;42.206;24.142;2022-09-03T09:08:49;98748.59;;;30.45;52.04
12215;BME280;6170;42.206;24.142;2022-09-03T09:11:27;98748.41;;;30.12;52.72
12215;BME280;6170;42.206;24.142;2022-09-03T09:14:03;98753.56;;;30.60;52.04
12215;BME280;6170;42.206;24.142;2022-09-03T09:16:38;98762.38;;;30.16;53.17
12215;BME280;6170;42.206;24.142;2022-09-03T09:19:16;98748.28;;;30.38;52.69
12215;BME280;6170;42.206;24.142;2022-09-03T09:21:51;98755.09;;;30.49;52.82
12215;BME280;6170;42.206;24.142;2022-09-03T09:24:22;98756.09;;;30.45;54.36
12215;BME280;6170;42.206;24.142;2022-09-03T09:26:54;98756.06;;;30.53;53.03
12215;BME280;6170;42.206;24.142;2022-09-03T09:29:21;98761.59;;;30.53;52.69
12215;BME280;6170;42.206;24.142;2022-09-03T09:31:48;98754.19;;;30.28;53.60
12215;BME280;6170;42.206;24.142;2022-09-03T09:34:15;98757.19;;;30.52;52.42
12215;BME280;6170;42.206;24.142;2022-09-03T09:36:45;98756.81;;;30.24;55.44
12215;BME280;6170;42.206;24.142;2022-09-03T09:39:14;98760.56;;;31.49;53.31
12215;BME280;6170;42.206;24.142;2022-09-03T09:41:41;98755.69;;;30.84;51.13
12215;BME280;6170;42.206;24.142;2022-09-03T09:44:18;98753.28;;;31.03;52.79
12215;BME280;6170;42.206;24.142;2022-09-03T09:46:45;98754.50;;;30.35;50.91
12215;BME280;6170;42.206;24.142;2022-09-03T09:49:29;98749.13;;;29.83;51.86
12215;BME280;6170;42.206;24.142;2022-09-03T09:52:02;98749.19;;;29.15;53.55
12215;BME280;6170;42.206;24.142;2022-09-03T09:54:30;98749.34;;;28.84;53.92
12215;BME280;6170;42.206;24.142;2022-09-03T09:56:58;98749.19;;;29.06;54.45
12215;BME280;6170;42.206;24.142;2022-09-03T09:59:26;98755.19;;;29.17;54.48
12215;BME280;6170;42.206;24.142;2022-09-03T10:02:03;98756.41;;;29.97;52.74
12215;BME280;6170;42.206;24.142;2022-09-03T10:04:33;98743.13;;;29.81;52.71
12215;BME280;6170;42.206;24.142;2022-09-03T10:07:03;98751.78;;;29.63;52.66
12215;BME280;6170;42.206;24.142;2022-09-03T10:09:32;98761.88;;;29.16;53.11
12215;BME280;6170;42.206;24.142;2022-09-03T10:12:06;98750.31;;;29.05;53.15
12215;BME280;6170;42.206;24.142;2022-09-03T10:14:41;98750.97;;;28.85;54.72
12215;BME280;6170;42.206;24.142;2022-09-03T10:17:17;98746.44;;;29.40;54.31
12215;BME280;6170;42.206;24.142;2022-09-03T10:19:51;98742.53;;;29.50;54.21
12215;BME280;6170;42.206;24.142;2022-09-03T10:22:40;98740.91;;;29.49;53.44
12215;BME280;6170;42.206;24.142;2022-09-03T10:25:13;98751.09;;;29.74;54.84
12215;BME280;6170;42.206;24.142;2022-09-03T10:27:40;98750.41;;;30.32;54.03
12215;BME280;6170;42.206;24.142;2022-09-03T10:30:11;98753.97;;;30.04;52.89
12215;BME280;6170;42.206;24.142;2022-09-03T10:32:45;98753.41;;;29.55;53.15
12215;BME280;6170;42.206;24.142;2022-09-03T10:35:29;98754.06;;;29.26;52.74
12215;BME280;6170;42.206;24.142;2022-09-03T10:38:00;98748.84;;;28.90;54.72
12215;BME280;6170;42.206;24.142;2022-09-03T10:40:34;98756.22;;;29.29;54.05
12215;BME280;6170;42.206;24.142;2022-09-03T10:43:16;98764.97;;;29.31;54.73
12215;BME280;6170;42.206;24.142;2022-09-03T10:45:54;98751.06;;;29.83;55.18
12215;BME280;6170;42.206;24.142;2022-09-03T10:48:38;98757.41;;;30.39;52.22
12215;BME280;6170;42.206;24.142;2022-09-03T10:51:15;98752.63;;;30.56;53.55
12215;BME280;6170;42.206;24.142;2022-09-03T10:54:00;98738.41;;;30.87;52.21
12215;BME280;6170;42.206;24.142;2022-09-03T10:56:41;98741.41;;;31.24;52.13
12215;BME280;6170;42.206;24.142;2022-09-03T10:59:29;98740.00;;;31.17;50.44
12215;BME280;6170;42.206;24.142;2022-09-03T11:02:23;98743.41;;;32.01;49.50
12215;BME280;6170;42.206;24.142;2022-09-03T11:04:59;98742.84;;;32.07;50.59
12215;BME280;6170;42.206;24.142;2022-09-03T11:07:34;98735.19;;;31.80;50.05
12215;BME280;6170;42.206;24.142;2022-09-03T11:10:11;98734.81;;;31.49;49.52
12215;BME280;6170;42.206;24.142;2022-09-03T11:12:43;98729.94;;;32.12;49.29
12215;BME280;6170;42.206;24.142;2022-09-03T11:15:24;98738.13;;;32.08;49.13
12215;BME280;6170;42.206;24.142;2022-09-03T11:17:57;98730.75;;;32.36;49.61
12215;BME280;6170;42.206;24.142;2022-09-03T11:20:26;98727.56;;;31.89;49.80
12215;BME280;6170;42.206;24.142;2022-09-03T11:22:55;98728.41;;;32.02;48.04
12215;BME280;6170;42.206;24.142;2022-09-03T11:25:26;98717.81;;;32.40;49.23
12215;BME280;6170;42.206;24.142;2022-09-03T11:28:06;98718.03;;;32.35;49.55
12215;BME280;6170;42.206;24.142;2022-09-03T11:30:46;98716.84;;;32.00;47.57
12215;BME280;6170;42.206;24.142;2022-09-03T11:33:18;98722.09;;;32.26;48.82
12215;BME280;6170;42.206;24.142;2022-09-03T11:35:48;98721.84;;;32.19;48.06
12215;BME280;6170;42.206;24.142;2022-09-03T11:38:21;98720.94;;;31.70;48.49
12215;BME280;6170;42.206;24.142;2022-09-03T11:41:00;98731.06;;;31.33;48.76
12215;BME280;6170;42.206;24.142;2022-09-03T11:43:31;98717.38;;;31.48;50.18
12215;BME280;6170;42.206;24.142;2022-09-03T11:46:29;98711.66;;;31.86;49.78
12215;BME280;6170;42.206;24.142;2022-09-03T11:49:09;98716.19;;;32.15;49.06
12215;BME280;6170;42.206;24.142;2022-09-03T11:51:39;98717.94;;;32.44;49.41
12215;BME280;6170;42.206;24.142;2022-09-03T11:54:23;98720.94;;;32.39;47.54
12215;BME280;6170;42.206;24.142;2022-09-03T11:57:04;98716.34;;;32.31;48.51
12215;BME280;6170;42.206;24.142;2022-09-03T11:59:34;98724.28;;;32.44;48.67
12215;BME280;6170;42.206;24.142;2022-09-03T12:02:12;98726.69;;;32.82;48.55
12215;BME280;6170;42.206;24.142;2022-09-03T12:04:48;98718.13;;;32.75;47.56
12215;BME280;6170;42.206;24.142;2022-09-03T12:07:30;98723.44;;;32.07;48.82
12215;BME280;6170;42.206;24.142;2022-09-03T12:10:14;98725.00;;;31.18;51.51
12215;BME280;6170;42.206;24.142;2022-09-03T12:13:10;98719.84;;;31.29;50.60
12215;BME280;6170;42.206;24.142;2022-09-03T12:16:09;98718.91;;;31.25;50.16
12215;BME280;6170;42.206;24.142;2022-09-03T12:18:39;98714.38;;;31.41;51.10
12215;BME280;6170;42.206;24.142;2022-09-03T12:21:09;98715.72;;;31.35;51.06
12215;BME280;6170;42.206;24.142;2022-09-03T12:23:40;98720.00;;;30.70;52.26
12215;BME280;6170;42.206;24.142;2022-09-03T12:26:11;98723.53;;;30.42;52.39
12215;BME280;6170;42.206;24.142;2022-09-03T12:28:41;98726.91;;;30.56;52.34
12215;BME280;6170;42.206;24.142;2022-09-03T12:31:09;98708.25;;;30.44;52.01
12215;BME280;6170;42.206;24.142;2022-09-03T12:33:52;98710.00;;;30.19;53.38
12215;BME280;6170;42.206;24.142;2022-09-03T12:36:20;98711.72;;;30.03;52.61
12215;BME280;6170;42.206;24.142;2022-09-03T12:38:47;98713.50;;;29.99;52.19
12215;BME280;6170;42.206;24.142;2022-09-03T12:41:22;98712.88;;;30.61;52.59
12215;BME280;6170;42.206;24.142;2022-09-03T12:43:51;98711.59;;;30.58;52.61
12215;BME280;6170;42.206;24.142;2022-09-03T12:46:22;98713.16;;;30.68;51.92
12215;BME280;6170;42.206;24.142;2022-09-03T12:48:55;98712.41;;;30.29;53.71
12215;BME280;6170;42.206;24.142;2022-09-03T12:51:30;98702.38;;;30.96;50.90
12215;BME280;6170;42.206;24.142;2022-09-03T12:53:57;98712.75;;;30.19;51.89
12215;BME280;6170;42.206;24.142;2022-09-03T12:56:25;98706.53;;;29.84;52.40
12215;BME280;6170;42.206;24.142;2022-09-03T12:58:58;98712.63;;;29.69;54.26
12215;BME280;6170;42.206;24.142;2022-09-03T13:01:29;98702.97;;;29.84;53.00
12215;BME280;6170;42.206;24.142;2022-09-03T13:04:02;98701.97;;;29.97;53.72
12215;BME280;6170;42.206;24.142;2022-09-03T13:06:32;98699.81;;;30.11;52.70
12215;BME280;6170;42.206;24.142;2022-09-03T13:09:03;98718.34;;;30.11;52.18
12215;BME280;6170;42.206;24.142;2022-09-03T13:11:32;98714.44;;;29.48;53.22
12215;BME280;6170;42.206;24.142;2022-09-03T13:14:03;98706.41;;;29.89;52.26
12215;BME280;6170;42.206;24.142;2022-09-03T13:16:54;98701.03;;;29.93;52.51
12215;BME280;6170;42.206;24.142;2022-09-03T13:19:36;98705.94;;;29.70;53.58
12215;BME280;6170;42.206;24.142;2022-09-03T13:22:15;98699.38;;;29.83;53.46
12215;BME280;6170;42.206;24.142;2022-09-03T13:24:55;98703.31;;;29.91;52.05